sensor_id;sensor_type;location;lat;lon;timestamp;P1;durP1;ratioP1;P2;durP2;ratioP2
15082;SDS011;7640;53.116;6.878;2023-09-08T00:01:30;13.07;;;11.77;;
15082;SDS011;7640;53.116;6.878;2023-09-08T00:04:00;14.57;;;12.63;;
15082;SDS011;7640;53.116;6.878;2023-09-08T00:06:29;16.20;;;12.77;;
15082;SDS011;7640;53.116;6.878;2023-09-08T00:08:58;14.30;;;12.90;;
15082;SDS011;7640;53.116;6.878;2023-09-08T00:11:27;15.20;;;13.70;;
15082;SDS011;7640;53.116;6.878;2023-09-08T00:13:56;14.33;;;12.83;;
15082;SDS011;7640;53.116;6.878;2023-09-08T00:16:25;13.23;;;11.93;;
15082;SDS011;7640;53.116;6.878;2023-09-08T00:18:56;13.10;;;11.87;;
15082;SDS011;7640;53.116;6.878;2023-09-08T00:21:25;15.90;;;14.20;;
15082;SDS011;7640;53.116;6.878;2023-09-08T00:23:54;14.67;;;13.27;;
15082;SDS011;7640;53.116;6.878;2023-09-08T00:26:24;15.10;;;13.57;;
15082;SDS011;7640;53.116;6.878;2023-09-08T00:28:54;15.63;;;13.70;;
15082;SDS011;7640;53.116;6.878;2023-09-08T00:31:28;13.90;;;12.53;;
15082;SDS011;7640;53.116;6.878;2023-09-08T00:33:57;13.97;;;12.57;;
15082;SDS011;7640;53.116;6.878;2023-09-08T00:36:25;14.53;;;13.17;;
15082;SDS011;7640;53.116;6.878;2023-09-08T00:38:54;14.63;;;13.03;;
15082;SDS011;7640;53.116;6.878;2023-09-08T00:41:23;14.07;;;12.67;;
15082;SDS011;7640;53.116;6.878;2023-09-08T00:43:52;13.63;;;12.23;;
15082;SDS011;7640;53.116;6.878;2023-09-08T00:46:23;13.83;;;12.50;;
15082;SDS011;7640;53.116;6.878;2023-09-08T00:48:53;15.30;;;12.30;;
15082;SDS011;7640;53.116;6.878;2023-09-08T00:51:23;13.87;;;12.47;;
15082;SDS011;7640;53.116;6.878;2023-09-08T00:53:52;15.37;;;12.33;;
15082;SDS011;7640;53.116;6.878;2023-09-08T00:56:22;16.63;;;13.77;;
15082;SDS011;7640;53.116;6.878;2023-09-08T00:58:51;14.47;;;13.10;;
15082;SDS011;7640;53.116;6.878;2023-09-08T01:01:21;15.50;;;13.90;;
15082;SDS011;7640;53.116;6.878;2023-09-08T01:03:52;16.93;;;14.00;;
15082;SDS011;7640;53.116;6.878;2023-09-08T01:06:24;14.40;;;12.53;;
15082;SDS011;7640;53.116;6.878;2023-09-08T01:08:53;15.30;;;13.80;;
15082;SDS011;7640;53.116;6.878;2023-09-08T01:11:23;14.93;;;13.33;;
15082;SDS011;7640;53.116;6.878;2023-09-08T01:13:53;14.67;;;13.17;;
15082;SDS011;7640;53.116;6.878;2023-09-08T01:16:23;14.77;;;13.27;;
15082;SDS011;7640;53.116;6.878;2023-09-08T01:18:52;14.73;;;13.23;;
15082;SDS011;7640;53.116;6.878;2023-09-08T01:27:41;14.83;;;12.67;;
15082;SDS011;7640;53.116;6.878;2023-09-08T01:30:15;16.87;;;13.80;;
15082;SDS011;7640;53.116;6.878;2023-09-08T01:32:44;14.83;;;13.43;;
15082;SDS011;7640;53.116;6.878;2023-09-08T01:35:13;15.43;;;13.93;;
15082;SDS011;7640;53.116;6.878;2023-09-08T01:37:44;15.33;;;13.83;;
15082;SDS011;7640;53.116;6.878;2023-09-08T01:40:16;15.10;;;13.57;;
15082;SDS011;7640;53.116;6.878;2023-09-08T01:42:45;14.77;;;13.33;;
15082;SDS011;7640;53.116;6.878;2023-09-08T01:45:15;15.23;;;13.70;;
15082;SDS011;7640;53.116;6.878;2023-09-08T01:47:44;15.70;;;14.30;;
15082;SDS011;7640;53.116;6.878;2023-09-08T01:50:13;16.33;;;14.30;;
15082;SDS011;7640;53.116;6.878;2023-09-08T01:52:48;16.87;;;15.07;;
15082;SDS011;7640;53.116;6.878;2023-09-08T01:55:19;16.20;;;14.60;;
15082;SDS011;7640;53.116;6.878;2023-09-08T01:57:48;16.53;;;14.73;;
15082;SDS011;7640;53.116;6.878;2023-09-08T02:00:17;16.90;;;15.20;;
15082;SDS011;7640;53.116;6.878;2023-09-08T02:02:48;16.93;;;15.20;;
15082;SDS011;7640;53.116;6.878;2023-09-08T02:05:28;18.10;;;15.80;;
15082;SDS011;7640;53.116;6.878;2023-09-08T02:07:57;17.77;;;15.97;;
15082;SDS011;7640;53.116;6.878;2023-09-08T02:10:28;17.60;;;15.60;;
15082;SDS011;7640;53.116;6.878;2023-09-08T02:12:58;17.27;;;15.33;;
15082;SDS011;7640;53.116;6.878;2023-09-08T02:15:28;16.57;;;14.97;;
15082;SDS011;7640;53.116;6.878;2023-09-08T02:17:57;17.30;;;15.40;;
15082;SDS011;7640;53.116;6.878;2023-09-08T02:20:26;17.23;;;15.53;;
15082;SDS011;7640;53.116;6.878;2023-09-08T02:22:55;17.80;;;14.80;;
15082;SDS011;7640;53.116;6.878;2023-09-08T02:25:25;15.90;;;14.17;;
15082;SDS011;7640;53.116;6.878;2023-09-08T02:27:55;15.43;;;13.83;;
15082;SDS011;7640;53.116;6.878;2023-09-08T02:30:24;15.17;;;13.77;;
15082;SDS011;7640;53.116;6.878;2023-09-08T02:32:53;15.60;;;14.20;;
15082;SDS011;7640;53.116;6.878;2023-09-08T02:35:23;15.73;;;14.17;;
15082;SDS011;7640;53.116;6.878;2023-09-08T02:37:53;17.07;;;13.77;;
15082;SDS011;7640;53.116;6.878;2023-09-08T02:40:34;17.07;;;14.20;;
15082;SDS011;7640;53.116;6.878;2023-09-08T02:43:03;16.20;;;14.50;;
15082;SDS011;7640;53.116;6.878;2023-09-08T02:45:33;15.00;;;13.50;;
15082;SDS011;7640;53.116;6.878;2023-09-08T02:48:02;15.77;;;14.23;;
15082;SDS011;7640;53.116;6.878;2023-09-08T02:50:32;16.17;;;14.23;;
15082;SDS011;7640;53.116;6.878;2023-09-08T02:53:02;15.10;;;13.50;;
15082;SDS011;7640;53.116;6.878;2023-09-08T02:55:31;16.20;;;14.63;;
15082;SDS011;7640;53.116;6.878;2023-09-08T02:58:05;16.07;;;14.00;;
15082;SDS011;7640;53.116;6.878;2023-09-08T03:00:34;16.83;;;14.73;;
15082;SDS011;7640;53.116;6.878;2023-09-08T03:03:03;15.83;;;14.20;;
15082;SDS011;7640;53.116;6.878;2023-09-08T03:05:34;16.90;;;14.83;;
15082;SDS011;7640;53.116;6.878;2023-09-08T03:08:03;16.87;;;15.07;;
15082;SDS011;7640;53.116;6.878;2023-09-08T03:10:35;17.13;;;15.43;;
15082;SDS011;7640;53.116;6.878;2023-09-08T03:13:03;17.13;;;15.33;;
15082;SDS011;7640;53.116;6.878;2023-09-08T03:15:33;17.90;;;15.47;;
15082;SDS011;7640;53.116;6.878;2023-09-08T03:18:03;17.27;;;15.40;;
15082;SDS011;7640;53.116;6.878;2023-09-08T03:20:33;17.37;;;15.63;;
15082;SDS011;7640;53.116;6.878;2023-09-08T03:23:02;17.83;;;15.00;;
15082;SDS011;7640;53.116;6.878;2023-09-08T03:25:32;17.13;;;15.53;;
15082;SDS011;7640;53.116;6.878;2023-09-08T03:28:02;16.57;;;14.97;;
15082;SDS011;7640;53.116;6.878;2023-09-08T03:30:32;16.97;;;15.17;;
15082;SDS011;7640;53.116;6.878;2023-09-08T03:33:01;17.03;;;15.33;;
15082;SDS011;7640;53.116;6.878;2023-09-08T03:35:30;16.40;;;14.83;;
15082;SDS011;7640;53.116;6.878;2023-09-08T03:38:00;17.03;;;15.33;;
15082;SDS011;7640;53.116;6.878;2023-09-08T03:40:30;17.60;;;15.73;;
15082;SDS011;7640;53.116;6.878;2023-09-08T03:43:02;17.27;;;15.37;;
15082;SDS011;7640;53.116;6.878;2023-09-08T03:45:31;17.37;;;15.40;;
15082;SDS011;7640;53.116;6.878;2023-09-08T03:48:01;18.73;;;15.57;;
15082;SDS011;7640;53.116;6.878;2023-09-08T03:50:31;17.43;;;15.50;;
15082;SDS011;7640;53.116;6.878;2023-09-08T03:53:00;16.57;;;14.87;;
15082;SDS011;7640;53.116;6.878;2023-09-08T03:55:32;18.90;;;16.87;;
15082;SDS011;7640;53.116;6.878;2023-09-08T03:58:03;16.30;;;14.60;;
15082;SDS011;7640;53.116;6.878;2023-09-08T04:00:32;17.10;;;15.40;;
15082;SDS011;7640;53.116;6.878;2023-09-08T04:03:02;19.10;;;16.10;;
15082;SDS011;7640;53.116;6.878;2023-09-08T04:05:32;18.20;;;16.27;;
15082;SDS011;7640;53.116;6.878;2023-09-08T04:08:02;18.80;;;16.80;;
15082;SDS011;7640;53.116;6.878;2023-09-08T04:10:32;20.47;;;17.13;;
15082;SDS011;7640;53.116;6.878;2023-09-08T04:13:01;21.20;;;18.07;;
15082;SDS011;7640;53.116;6.878;2023-09-08T04:15:32;19.10;;;16.53;;
15082;SDS011;7640;53.116;6.878;2023-09-08T04:18:01;19.43;;;17.53;;
15082;SDS011;7640;53.116;6.878;2023-09-08T04:20:31;19.93;;;17.83;;
15082;SDS011;7640;53.116;6.878;2023-09-08T04:23:01;18.97;;;17.00;;
15082;SDS011;7640;53.116;6.878;2023-09-08T04:25:31;20.00;;;17.30;;
15082;SDS011;7640;53.116;6.878;2023-09-08T04:28:01;20.03;;;18.03;;
15082;SDS011;7640;53.116;6.878;2023-09-08T04:30:32;19.43;;;17.30;;
15082;SDS011;7640;53.116;6.878;2023-09-08T04:33:01;18.93;;;16.93;;
15082;SDS011;7640;53.116;6.878;2023-09-08T04:35:31;18.67;;;16.87;;
15082;SDS011;7640;53.116;6.878;2023-09-08T04:38:00;19.87;;;17.77;;
15082;SDS011;7640;53.116;6.878;2023-09-08T04:40:30;20.47;;;18.30;;
15082;SDS011;7640;53.116;6.878;2023-09-08T04:42:59;20.87;;;18.70;;
15082;SDS011;7640;53.116;6.878;2023-09-08T04:45:30;19.17;;;17.27;;
15082;SDS011;7640;53.116;6.878;2023-09-08T04:48:02;20.77;;;18.67;;
15082;SDS011;7640;53.116;6.878;2023-09-08T04:50:32;20.93;;;18.67;;
15082;SDS011;7640;53.116;6.878;2023-09-08T04:53:01;19.17;;;17.17;;
15082;SDS011;7640;53.116;6.878;2023-09-08T04:55:31;21.37;;;19.20;;
15082;SDS011;7640;53.116;6.878;2023-09-08T04:58:00;20.83;;;18.90;;
15082;SDS011;7640;53.116;6.878;2023-09-08T05:00:37;19.73;;;17.80;;
15082;SDS011;7640;53.116;6.878;2023-09-08T05:03:06;21.63;;;19.10;;
15082;SDS011;7640;53.116;6.878;2023-09-08T05:05:35;21.37;;;19.07;;
15082;SDS011;7640;53.116;6.878;2023-09-08T05:08:05;20.60;;;18.47;;
15082;SDS011;7640;53.116;6.878;2023-09-08T05:10:34;20.83;;;18.57;;
15082;SDS011;7640;53.116;6.878;2023-09-08T05:13:03;19.43;;;17.40;;
15082;SDS011;7640;53.116;6.878;2023-09-08T05:15:47;23.03;;;18.70;;
15082;SDS011;7640;53.116;6.878;2023-09-08T05:18:16;20.70;;;18.63;;
15082;SDS011;7640;53.116;6.878;2023-09-08T05:20:47;22.53;;;20.13;;
15082;SDS011;7640;53.116;6.878;2023-09-08T05:23:16;19.63;;;17.53;;
15082;SDS011;7640;53.116;6.878;2023-09-08T05:25:45;21.10;;;18.97;;
15082;SDS011;7640;53.116;6.878;2023-09-08T05:28:13;21.77;;;19.43;;
15082;SDS011;7640;53.116;6.878;2023-09-08T05:30:42;20.97;;;18.87;;
15082;SDS011;7640;53.116;6.878;2023-09-08T05:33:13;20.20;;;18.13;;
15082;SDS011;7640;53.116;6.878;2023-09-08T05:35:42;22.67;;;19.63;;
15082;SDS011;7640;53.116;6.878;2023-09-08T05:38:11;20.70;;;18.50;;
15082;SDS011;7640;53.116;6.878;2023-09-08T05:40:40;20.63;;;18.17;;
15082;SDS011;7640;53.116;6.878;2023-09-08T05:43:09;21.33;;;18.97;;
15082;SDS011;7640;53.116;6.878;2023-09-08T05:45:38;21.80;;;19.67;;
15082;SDS011;7640;53.116;6.878;2023-09-08T05:48:07;20.83;;;18.70;;
15082;SDS011;7640;53.116;6.878;2023-09-08T05:50:38;21.30;;;19.00;;
15082;SDS011;7640;53.116;6.878;2023-09-08T05:53:06;20.57;;;18.67;;
15082;SDS011;7640;53.116;6.878;2023-09-08T05:55:35;20.70;;;18.63;;
15082;SDS011;7640;53.116;6.878;2023-09-08T05:58:04;22.40;;;19.80;;
15082;SDS011;7640;53.116;6.878;2023-09-08T06:00:33;20.00;;;17.93;;
15082;SDS011;7640;53.116;6.878;2023-09-08T06:03:03;21.20;;;19.03;;
15082;SDS011;7640;53.116;6.878;2023-09-08T06:05:32;19.50;;;17.37;;
15082;SDS011;7640;53.116;6.878;2023-09-08T06:08:03;20.53;;;18.47;;
15082;SDS011;7640;53.116;6.878;2023-09-08T06:10:33;20.93;;;18.57;;
15082;SDS011;7640;53.116;6.878;2023-09-08T06:13:06;20.03;;;17.93;;
15082;SDS011;7640;53.116;6.878;2023-09-08T06:15:35;21.67;;;19.40;;
15082;SDS011;7640;53.116;6.878;2023-09-08T06:18:04;20.17;;;18.27;;
15082;SDS011;7640;53.116;6.878;2023-09-08T06:20:33;20.53;;;18.43;;
15082;SDS011;7640;53.116;6.878;2023-09-08T06:23:04;22.17;;;19.93;;
15082;SDS011;7640;53.116;6.878;2023-09-08T06:25:33;25.43;;;20.83;;
15082;SDS011;7640;53.116;6.878;2023-09-08T06:28:02;22.80;;;20.50;;
15082;SDS011;7640;53.116;6.878;2023-09-08T06:30:31;21.57;;;19.17;;
15082;SDS011;7640;53.116;6.878;2023-09-08T06:33:01;21.67;;;19.10;;
15082;SDS011;7640;53.116;6.878;2023-09-08T06:35:31;21.57;;;19.30;;
15082;SDS011;7640;53.116;6.878;2023-09-08T06:38:01;19.43;;;17.43;;
15082;SDS011;7640;53.116;6.878;2023-09-08T06:40:32;20.97;;;18.90;;
15082;SDS011;7640;53.116;6.878;2023-09-08T06:43:01;20.77;;;18.57;;
15082;SDS011;7640;53.116;6.878;2023-09-08T06:45:31;20.60;;;18.40;;
15082;SDS011;7640;53.116;6.878;2023-09-08T06:48:00;21.47;;;19.07;;
15082;SDS011;7640;53.116;6.878;2023-09-08T06:50:29;21.37;;;19.10;;
15082;SDS011;7640;53.116;6.878;2023-09-08T06:52:58;19.83;;;17.87;;
15082;SDS011;7640;53.116;6.878;2023-09-08T06:55:29;20.10;;;17.97;;
15082;SDS011;7640;53.116;6.878;2023-09-08T06:57:58;18.03;;;16.30;;
15082;SDS011;7640;53.116;6.878;2023-09-08T07:00:28;16.77;;;15.03;;
15082;SDS011;7640;53.116;6.878;2023-09-08T07:02:57;16.40;;;14.70;;
15082;SDS011;7640;53.116;6.878;2023-09-08T07:05:26;15.10;;;13.67;;
15082;SDS011;7640;53.116;6.878;2023-09-08T07:07:55;16.83;;;14.20;;
15082;SDS011;7640;53.116;6.878;2023-09-08T07:10:23;15.87;;;12.70;;
15082;SDS011;7640;53.116;6.878;2023-09-08T07:12:54;14.73;;;13.17;;
15082;SDS011;7640;53.116;6.878;2023-09-08T07:15:23;15.23;;;13.03;;
15082;SDS011;7640;53.116;6.878;2023-09-08T07:17:51;14.10;;;12.70;;
15082;SDS011;7640;53.116;6.878;2023-09-08T07:20:20;14.27;;;12.90;;
15082;SDS011;7640;53.116;6.878;2023-09-08T07:22:49;14.60;;;13.10;;
15082;SDS011;7640;53.116;6.878;2023-09-08T07:25:18;14.37;;;12.87;;
15082;SDS011;7640;53.116;6.878;2023-09-08T07:27:47;17.33;;;12.77;;
15082;SDS011;7640;53.116;6.878;2023-09-08T07:30:20;13.90;;;12.50;;
15082;SDS011;7640;53.116;6.878;2023-09-08T07:32:49;14.40;;;13.00;;
15082;SDS011;7640;53.116;6.878;2023-09-08T07:35:18;14.75;;;12.75;;
15082;SDS011;7640;53.116;6.878;2023-09-08T07:37:47;14.33;;;12.10;;
15082;SDS011;7640;53.116;6.878;2023-09-08T07:40:16;13.90;;;12.60;;
15082;SDS011;7640;53.116;6.878;2023-09-08T07:42:46;13.65;;;12.25;;
15082;SDS011;7640;53.116;6.878;2023-09-08T07:45:15;12.93;;;11.45;;
15082;SDS011;7640;53.116;6.878;2023-09-08T07:47:46;13.02;;;11.80;;
15082;SDS011;7640;53.116;6.878;2023-09-08T07:50:16;15.00;;;12.10;;
15082;SDS011;7640;53.116;6.878;2023-09-08T07:52:48;13.57;;;12.20;;
15082;SDS011;7640;53.116;6.878;2023-09-08T07:55:19;13.82;;;12.27;;
15082;SDS011;7640;53.116;6.878;2023-09-08T07:57:50;16.38;;;12.65;;
15082;SDS011;7640;53.116;6.878;2023-09-08T08:00:19;12.75;;;11.63;;
15082;SDS011;7640;53.116;6.878;2023-09-08T08:02:50;13.05;;;11.75;;
15082;SDS011;7640;53.116;6.878;2023-09-08T08:05:22;12.50;;;11.30;;
15082;SDS011;7640;53.116;6.878;2023-09-08T08:07:52;12.80;;;11.60;;
15082;SDS011;7640;53.116;6.878;2023-09-08T08:10:22;12.75;;;11.45;;
15082;SDS011;7640;53.116;6.878;2023-09-08T08:12:51;13.13;;;11.93;;
15082;SDS011;7640;53.116;6.878;2023-09-08T08:15:20;13.43;;;12.05;;
15082;SDS011;7640;53.116;6.878;2023-09-08T08:18:05;14.07;;;11.63;;
15082;SDS011;7640;53.116;6.878;2023-09-08T08:20:37;13.23;;;11.60;;
15082;SDS011;7640;53.116;6.878;2023-09-08T08:23:07;13.07;;;11.40;;
15082;SDS011;7640;53.116;6.878;2023-09-08T08:25:36;12.90;;;11.60;;
15082;SDS011;7640;53.116;6.878;2023-09-08T08:28:05;11.82;;;10.68;;
15082;SDS011;7640;53.116;6.878;2023-09-08T08:30:34;12.82;;;11.10;;
15082;SDS011;7640;53.116;6.878;2023-09-08T08:33:05;11.40;;;10.20;;
15082;SDS011;7640;53.116;6.878;2023-09-08T08:35:34;10.82;;;9.75;;
15082;SDS011;7640;53.116;6.878;2023-09-08T08:38:03;10.23;;;9.23;;
15082;SDS011;7640;53.116;6.878;2023-09-08T08:40:33;10.02;;;8.98;;
15082;SDS011;7640;53.116;6.878;2023-09-08T08:43:07;9.75;;;8.75;;
15082;SDS011;7640;53.116;6.878;2023-09-08T08:45:37;10.10;;;9.10;;
15082;SDS011;7640;53.116;6.878;2023-09-08T08:48:08;10.25;;;9.15;;
15082;SDS011;7640;53.116;6.878;2023-09-08T08:50:38;10.25;;;9.20;;
15082;SDS011;7640;53.116;6.878;2023-09-08T08:53:10;10.00;;;8.73;;
15082;SDS011;7640;53.116;6.878;2023-09-08T08:55:40;9.30;;;8.43;;
15082;SDS011;7640;53.116;6.878;2023-09-08T08:58:12;9.15;;;8.13;;
15082;SDS011;7640;53.116;6.878;2023-09-08T09:00:45;9.30;;;8.40;;
15082;SDS011;7640;53.116;6.878;2023-09-08T09:03:16;9.48;;;8.52;;
15082;SDS011;7640;53.116;6.878;2023-09-08T09:05:45;9.35;;;8.50;;
15082;SDS011;7640;53.116;6.878;2023-09-08T09:08:15;9.50;;;8.43;;
15082;SDS011;7640;53.116;6.878;2023-09-08T09:10:45;8.73;;;7.82;;
15082;SDS011;7640;53.116;6.878;2023-09-08T09:13:14;10.30;;;9.20;;
15082;SDS011;7640;53.116;6.878;2023-09-08T09:15:42;9.05;;;8.10;;
15082;SDS011;7640;53.116;6.878;2023-09-08T09:18:13;9.43;;;7.80;;
15082;SDS011;7640;53.116;6.878;2023-09-08T09:20:43;10.27;;;8.00;;
15082;SDS011;7640;53.116;6.878;2023-09-08T09:23:30;9.20;;;8.32;;
15082;SDS011;7640;53.116;6.878;2023-09-08T09:26:07;9.57;;;8.57;;
15082;SDS011;7640;53.116;6.878;2023-09-08T09:28:42;8.50;;;7.60;;
15082;SDS011;7640;53.116;6.878;2023-09-08T09:31:15;9.68;;;7.78;;
15082;SDS011;7640;53.116;6.878;2023-09-08T09:33:44;8.38;;;7.65;;
15082;SDS011;7640;53.116;6.878;2023-09-08T09:36:20;7.25;;;6.63;;
15082;SDS011;7640;53.116;6.878;2023-09-08T09:38:50;7.45;;;6.75;;
15082;SDS011;7640;53.116;6.878;2023-09-08T09:41:19;7.57;;;6.88;;
15082;SDS011;7640;53.116;6.878;2023-09-08T09:43:47;9.70;;;7.13;;
15082;SDS011;7640;53.116;6.878;2023-09-08T09:46:16;9.38;;;6.93;;
15082;SDS011;7640;53.116;6.878;2023-09-08T09:48:50;7.00;;;6.30;;
15082;SDS011;7640;53.116;6.878;2023-09-08T09:51:22;7.90;;;7.15;;
15082;SDS011;7640;53.116;6.878;2023-09-08T09:53:51;8.50;;;7.45;;
15082;SDS011;7640;53.116;6.878;2023-09-08T09:56:25;7.88;;;7.07;;
15082;SDS011;7640;53.116;6.878;2023-09-08T09:58:54;8.27;;;6.60;;
15082;SDS011;7640;53.116;6.878;2023-09-08T10:01:24;7.72;;;6.90;;
15082;SDS011;7640;53.116;6.878;2023-09-08T10:03:53;6.90;;;6.30;;
15082;SDS011;7640;53.116;6.878;2023-09-08T10:06:24;7.05;;;6.35;;
15082;SDS011;7640;53.116;6.878;2023-09-08T10:08:55;7.05;;;6.40;;
15082;SDS011;7640;53.116;6.878;2023-09-08T10:11:24;7.30;;;6.50;;
15082;SDS011;7640;53.116;6.878;2023-09-08T10:13:59;7.43;;;6.70;;
15082;SDS011;7640;53.116;6.878;2023-09-08T10:16:29;7.03;;;6.13;;
15082;SDS011;7640;53.116;6.878;2023-09-08T10:19:06;6.68;;;5.85;;
15082;SDS011;7640;53.116;6.878;2023-09-08T10:21:40;6.85;;;6.25;;
15082;SDS011;7640;53.116;6.878;2023-09-08T10:24:13;6.70;;;6.00;;
15082;SDS011;7640;53.116;6.878;2023-09-08T10:26:44;7.13;;;6.13;;
15082;SDS011;7640;53.116;6.878;2023-09-08T10:29:19;6.93;;;6.22;;
15082;SDS011;7640;53.116;6.878;2023-09-08T10:31:48;8.85;;;6.40;;
15082;SDS011;7640;53.116;6.878;2023-09-08T10:34:18;7.15;;;6.55;;
15082;SDS011;7640;53.116;6.878;2023-09-08T10:36:50;8.30;;;5.80;;
15082;SDS011;7640;53.116;6.878;2023-09-08T10:39:31;6.53;;;5.57;;
15082;SDS011;7640;53.116;6.878;2023-09-08T10:42:22;6.85;;;6.25;;
15082;SDS011;7640;53.116;6.878;2023-09-08T10:45:14;6.72;;;6.03;;
15082;SDS011;7640;53.116;6.878;2023-09-08T10:47:55;6.70;;;6.10;;
15082;SDS011;7640;53.116;6.878;2023-09-08T10:50:33;6.60;;;6.00;;
15082;SDS011;7640;53.116;6.878;2023-09-08T10:53:11;6.30;;;5.78;;
15082;SDS011;7640;53.116;6.878;2023-09-08T10:55:44;7.00;;;5.82;;
15082;SDS011;7640;53.116;6.878;2023-09-08T10:58:39;8.02;;;5.95;;
15082;SDS011;7640;53.116;6.878;2023-09-08T11:01:12;6.50;;;5.85;;
15082;SDS011;7640;53.116;6.878;2023-09-08T11:03:45;6.50;;;5.90;;
15082;SDS011;7640;53.116;6.878;2023-09-08T11:06:17;8.02;;;5.90;;
15082;SDS011;7640;53.116;6.878;2023-09-08T11:08:50;6.93;;;5.82;;
15082;SDS011;7640;53.116;6.878;2023-09-08T11:11:23;5.90;;;5.18;;
15082;SDS011;7640;53.116;6.878;2023-09-08T11:13:53;6.60;;;5.57;;
15082;SDS011;7640;53.116;6.878;2023-09-08T11:16:22;5.97;;;5.38;;
15082;SDS011;7640;53.116;6.878;2023-09-08T11:18:56;5.75;;;5.25;;
15082;SDS011;7640;53.116;6.878;2023-09-08T11:21:25;6.10;;;5.50;;
15082;SDS011;7640;53.116;6.878;2023-09-08T11:24:03;7.95;;;5.45;;
15082;SDS011;7640;53.116;6.878;2023-09-08T11:26:36;6.72;;;5.28;;
15082;SDS011;7640;53.116;6.878;2023-09-08T11:29:05;6.25;;;5.47;;
15082;SDS011;7640;53.116;6.878;2023-09-08T11:31:34;5.80;;;5.15;;
15082;SDS011;7640;53.116;6.878;2023-09-08T11:34:04;5.78;;;5.10;;
15082;SDS011;7640;53.116;6.878;2023-09-08T11:36:34;6.10;;;5.50;;
15082;SDS011;7640;53.116;6.878;2023-09-08T11:39:05;5.45;;;4.95;;
15082;SDS011;7640;53.116;6.878;2023-09-08T11:41:35;6.25;;;5.53;;
15082;SDS011;7640;53.116;6.878;2023-09-08T11:44:04;6.28;;;5.10;;
15082;SDS011;7640;53.116;6.878;2023-09-08T11:46:34;5.53;;;4.97;;
15082;SDS011;7640;53.116;6.878;2023-09-08T11:49:03;5.75;;;5.10;;
15082;SDS011;7640;53.116;6.878;2023-09-08T11:51:33;5.30;;;4.80;;
15082;SDS011;7640;53.116;6.878;2023-09-08T11:54:03;5.82;;;5.32;;
15082;SDS011;7640;53.116;6.878;2023-09-08T11:56:34;5.63;;;5.10;;
15082;SDS011;7640;53.116;6.878;2023-09-08T11:59:05;5.40;;;4.90;;
15082;SDS011;7640;53.116;6.878;2023-09-08T12:01:35;5.30;;;4.70;;
15082;SDS011;7640;53.116;6.878;2023-09-08T12:04:04;5.45;;;4.95;;
15082;SDS011;7640;53.116;6.878;2023-09-08T12:06:33;8.00;;;5.07;;
15082;SDS011;7640;53.116;6.878;2023-09-08T12:09:02;5.25;;;4.85;;
15082;SDS011;7640;53.116;6.878;2023-09-08T12:11:33;5.60;;;5.10;;
15082;SDS011;7640;53.116;6.878;2023-09-08T12:14:08;5.65;;;4.40;;
15082;SDS011;7640;53.116;6.878;2023-09-08T12:16:39;5.65;;;5.00;;
15082;SDS011;7640;53.116;6.878;2023-09-08T12:19:08;5.05;;;4.50;;
15082;SDS011;7640;53.116;6.878;2023-09-08T12:21:56;4.82;;;4.38;;
15082;SDS011;7640;53.116;6.878;2023-09-08T12:24:48;4.90;;;4.50;;
15082;SDS011;7640;53.116;6.878;2023-09-08T12:27:24;6.90;;;4.47;;
15082;SDS011;7640;53.116;6.878;2023-09-08T12:29:53;4.97;;;4.53;;
15082;SDS011;7640;53.116;6.878;2023-09-08T12:32:23;4.97;;;4.45;;
15082;SDS011;7640;53.116;6.878;2023-09-08T12:34:53;5.20;;;4.80;;
15082;SDS011;7640;53.116;6.878;2023-09-08T12:37:22;7.38;;;4.70;;
15082;SDS011;7640;53.116;6.878;2023-09-08T12:39:55;5.20;;;4.70;;
15082;SDS011;7640;53.116;6.878;2023-09-08T12:42:24;4.88;;;4.38;;
15082;SDS011;7640;53.116;6.878;2023-09-08T12:44:57;5.00;;;4.50;;
15082;SDS011;7640;53.116;6.878;2023-09-08T12:47:26;5.15;;;4.75;;
15082;SDS011;7640;53.116;6.878;2023-09-08T12:49:55;4.80;;;4.38;;
15082;SDS011;7640;53.116;6.878;2023-09-08T12:52:24;4.95;;;4.40;;
15082;SDS011;7640;53.116;6.878;2023-09-08T12:54:52;5.10;;;4.25;;
15082;SDS011;7640;53.116;6.878;2023-09-08T12:57:22;5.45;;;4.85;;
15082;SDS011;7640;53.116;6.878;2023-09-08T12:59:51;4.82;;;4.43;;
15082;SDS011;7640;53.116;6.878;2023-09-08T13:02:20;4.63;;;4.20;;
15082;SDS011;7640;53.116;6.878;2023-09-08T13:04:51;4.88;;;4.22;;
15082;SDS011;7640;53.116;6.878;2023-09-08T13:07:21;4.97;;;4.55;;
15082;SDS011;7640;53.116;6.878;2023-09-08T13:09:50;5.18;;;4.60;;
15082;SDS011;7640;53.116;6.878;2023-09-08T13:12:20;4.32;;;3.92;;
15082;SDS011;7640;53.116;6.878;2023-09-08T13:14:49;7.53;;;4.43;;
15082;SDS011;7640;53.116;6.878;2023-09-08T13:17:17;4.97;;;4.10;;
15082;SDS011;7640;53.116;6.878;2023-09-08T13:19:47;4.85;;;4.40;;
15082;SDS011;7640;53.116;6.878;2023-09-08T13:22:16;5.93;;;4.63;;
15082;SDS011;7640;53.116;6.878;2023-09-08T13:24:45;5.07;;;4.50;;
15082;SDS011;7640;53.116;6.878;2023-09-08T13:27:13;5.03;;;4.50;;
15082;SDS011;7640;53.116;6.878;2023-09-08T13:29:45;5.93;;;3.80;;
15082;SDS011;7640;53.116;6.878;2023-09-08T13:32:14;4.57;;;4.18;;
15082;SDS011;7640;53.116;6.878;2023-09-08T13:34:43;4.57;;;3.80;;
15082;SDS011;7640;53.116;6.878;2023-09-08T13:37:13;4.60;;;4.20;;
15082;SDS011;7640;53.116;6.878;2023-09-08T13:39:44;6.47;;;3.80;;
15082;SDS011;7640;53.116;6.878;2023-09-08T13:42:13;4.85;;;4.07;;
15082;SDS011;7640;53.116;6.878;2023-09-08T13:44:42;4.18;;;3.78;;
15082;SDS011;7640;53.116;6.878;2023-09-08T13:47:13;4.30;;;3.90;;
15082;SDS011;7640;53.116;6.878;2023-09-08T13:49:42;4.32;;;4.00;;
15082;SDS011;7640;53.116;6.878;2023-09-08T13:52:16;6.10;;;3.75;;
15082;SDS011;7640;53.116;6.878;2023-09-08T13:54:47;4.63;;;4.15;;
15082;SDS011;7640;53.116;6.878;2023-09-08T13:57:36;5.60;;;3.92;;
15082;SDS011;7640;53.116;6.878;2023-09-08T14:00:07;4.97;;;3.92;;
15082;SDS011;7640;53.116;6.878;2023-09-08T14:02:44;4.88;;;4.30;;
15082;SDS011;7640;53.116;6.878;2023-09-08T14:05:16;5.75;;;4.10;;
15082;SDS011;7640;53.116;6.878;2023-09-08T14:07:53;5.55;;;4.25;;
15082;SDS011;7640;53.116;6.878;2023-09-08T14:10:33;4.47;;;4.07;;
15082;SDS011;7640;53.116;6.878;2023-09-08T14:13:05;4.65;;;4.25;;
15082;SDS011;7640;53.116;6.878;2023-09-08T14:15:34;4.30;;;3.90;;
15082;SDS011;7640;53.116;6.878;2023-09-08T14:18:05;4.00;;;3.70;;
15082;SDS011;7640;53.116;6.878;2023-09-08T14:20:34;4.65;;;3.85;;
15082;SDS011;7640;53.116;6.878;2023-09-08T14:23:03;4.63;;;4.20;;
15082;SDS011;7640;53.116;6.878;2023-09-08T14:25:34;4.60;;;4.28;;
15082;SDS011;7640;53.116;6.878;2023-09-08T14:28:04;4.50;;;4.05;;
15082;SDS011;7640;53.116;6.878;2023-09-08T14:30:33;4.35;;;3.95;;
15082;SDS011;7640;53.116;6.878;2023-09-08T14:33:02;5.30;;;3.70;;
15082;SDS011;7640;53.116;6.878;2023-09-08T14:35:35;4.78;;;3.83;;
15082;SDS011;7640;53.116;6.878;2023-09-08T14:38:04;4.72;;;4.03;;
15082;SDS011;7640;53.116;6.878;2023-09-08T14:40:34;4.00;;;3.60;;
15082;SDS011;7640;53.116;6.878;2023-09-08T14:43:03;4.78;;;4.00;;
15082;SDS011;7640;53.116;6.878;2023-09-08T14:45:32;4.65;;;4.20;;
15082;SDS011;7640;53.116;6.878;2023-09-08T14:48:00;4.07;;;3.78;;
15082;SDS011;7640;53.116;6.878;2023-09-08T14:50:31;4.47;;;3.63;;
15082;SDS011;7640;53.116;6.878;2023-09-08T14:53:00;6.22;;;3.80;;
15082;SDS011;7640;53.116;6.878;2023-09-08T14:55:30;3.90;;;3.42;;
15082;SDS011;7640;53.116;6.878;2023-09-08T14:57:59;5.47;;;3.67;;
15082;SDS011;7640;53.116;6.878;2023-09-08T15:00:28;5.63;;;4.00;;
15082;SDS011;7640;53.116;6.878;2023-09-08T15:02:57;4.20;;;3.80;;
15082;SDS011;7640;53.116;6.878;2023-09-08T15:05:28;4.30;;;3.90;;
15082;SDS011;7640;53.116;6.878;2023-09-08T15:08:05;4.75;;;4.40;;
15082;SDS011;7640;53.116;6.878;2023-09-08T15:10:35;3.85;;;3.55;;
15082;SDS011;7640;53.116;6.878;2023-09-08T15:13:04;4.88;;;4.10;;